Etusivu
METAR-TAF:

METAR-TAF

Lentoasemat :

Barahona, Dominikaaninen tasavalta

Leveyspiiri: 18-12N, Pituuspiiri: 071-06W, korkeus merenpinnasta: 3 m

Tämänhetkinen sää

Tämä raportti tehtiin 7 tuntia ja 16 minuuttia sitten, kello 00.00 UTC
Tuuli 10 kn kaakosta
Lämpötila 28°C
Kosteus 79%
Ilmanpaine 1013 hPa
Näkyvyys 10 km tai enemmän
Muutamia pilviä 1800 ft:n korkeudessa, Cumulonimbus.
Muutamia pilviä 1800 ft:n korkeudessa
Hajanaisia pilviä 8000 ft:n korkeudessa
Hajonneita pilviä 30000 ft:n korkeudessa

METAR: MDBH 250000Z 13010KT 9999 FEW018CB FEW018 SCT080 BKN300 28/24 Q1013 CB/W/NW/N

Aika: 03:16 (07:16 UTC)

Sääennuste

Tämä raportti tehtiin 3 tuntia ja 16 minuuttia sitten, kello 04.00 UTC
Ennuste voimassa 25. päivästä klo 06 UTC - 26. päivään klo 06 UTC
Tuuli 10 kn kaakosta
Näkyvyys 10 km tai enemmän
Muutamia pilviä 1800 ft:n korkeudessa, Cumulonimbus.
Hajanaisia pilviä 1800 ft:n korkeudessa
Hajanaisia pilviä 8000 ft:n korkeudessa
Todennäköisyys 30%
25. päivästä klo 06 UTC - 25. päivään klo 12 UTC
Muutamia pilviä 1400 ft:n korkeudessa, Cumulonimbus.
Hajonneita pilviä 1400 ft:n korkeudessa
Hajonneita pilviä 7000 ft:n korkeudessa
Tulossa
25. päivästä klo 08 UTC - 25. päivään klo 10 UTC
Tuuli kn pohjoisesta
Näkyvyys 10 km tai enemmän
Hajanaisia pilviä 1800 ft:n korkeudessa
Hajanaisia pilviä 30000 ft:n korkeudessa
Tulossa
25. päivästä klo 14 UTC - 25. päivään klo 16 UTC
Tuuli 10 kn pohjoisesta

TAF: MDBH 250400Z 2506/2606 13010KT 9999 FEW018CB SCT018 SCT080 PROB30 2506/2512 7000-RA FEW014CB BKN014 BKN070 BECMG 2508/2510 00000KT MDJB 250400Z 2506/2606 00000KT 9999 SCT018 SCT300 BECMG 2514/2516 36010KT

Säähavainnot ja -ennusteet yli 4000 lentoasemalta (METAR- ja TAF-raportit).

Käytössä olevat sääasemat on merkitty karttaan keltaisilla ja punaisilla pisteillä.

Aseta hiiri pisteen päälle nähdäksesi sääaseman nimen.

Klikkaa sitten nähdäksesi säähavainnot ja -ennusteet.

Kartan vaihtaminen: klikkaa mustalla rastilla varustettuja vihreitä pisteitä, niin voit zoomata sisään; viivalla varustettua vihreää pistettä, niin voit zoomata ulos tai vihreitä nuolia, niin pääset viereisille kartoille.


METAR-TAF: